Time;durP1;ratioP1;P1;durP2;ratioP2;P2;SDS_P1;SDS_P2;PMS_P1;PMS_P2;Temp;Humidity;BMP_temperature;BMP_pressure;BME280_temperature;BME280_humidity;BME280_pressure;Samples;Min_cycle;Max_cycle;Signal;HPM_P1;HPM_P2
2022/05/12 00:00:58;;;;;;;10.38;2.47;;;11.20;99.90;;;;;;5051845;28;20021;-63
2022/05/12 00:03:25;;;;;;;11.80;2.60;;;11.20;99.90;;;;;;5052100;28;20040;-63
2022/05/12 00:05:50;;;;;;;19.75;3.08;;;11.30;99.90;;;;;;5052043;28;20113;-65
2022/05/12 00:08:16;;;;;;;10.57;2.58;;;11.30;99.90;;;;;;5055470;28;20057;-65
2022/05/12 00:10:42;;;;;;;11.30;2.80;;;11.20;99.90;;;;;;5055571;28;20518;-67
2022/05/12 00:13:09;;;;;;;14.38;2.45;;;11.20;99.90;;;;;;5054276;28;20488;-65
2022/05/12 00:15:36;;;;;;;11.80;3.08;;;11.20;99.90;;;;;;5055581;28;20096;-66
2022/05/12 00:18:04;;;;;;;12.57;2.78;;;11.20;99.90;;;;;;5055555;28;20032;-64
2022/05/12 00:20:31;;;;;;;14.70;3.22;;;11.20;99.90;;;;;;5055269;28;20373;-61
2022/05/12 00:23:24;;;;;;;15.13;3.08;;;11.20;99.90;;;;;;5055002;28;20021;-64
2022/05/12 00:25:50;;;;;;;;;;;11.20;99.90;;;;;;5053846;28;20033;-64
2022/05/12 00:28:20;;;;;;;15.57;2.63;;;11.20;99.90;;;;;;5055153;28;20342;-65
2022/05/12 00:30:48;;;;;;;19.80;3.83;;;11.20;99.90;;;;;;5055406;28;20759;-62
2022/05/12 00:33:15;;;;;;;11.52;2.33;;;11.20;99.90;;;;;;5054776;28;20070;-65
2022/05/12 00:35:43;;;;;;;18.55;3.40;;;11.20;99.90;;;;;;5055190;28;20029;-64
2022/05/12 00:38:10;;;;;;;14.23;2.95;;;11.10;99.90;;;;;;5055434;28;20028;-67
2022/05/12 00:40:37;;;;;;;18.13;3.15;;;11.10;99.90;;;;;;5053705;28;20478;-63
2022/05/12 00:43:05;;;;;;;14.93;2.83;;;11.10;99.90;;;;;;5055035;28;20083;-62
2022/05/12 00:45:35;;;;;;;20.63;3.60;;;11.10;99.90;;;;;;5055473;28;20044;-63
2022/05/12 00:48:02;;;;;;;16.80;3.20;;;11.00;99.90;;;;;;5053464;28;20372;-65
2022/05/12 00:50:39;;;;;;;7.88;2.53;;;11.00;99.90;;;;;;5054928;28;20365;-65
2022/05/12 00:53:08;;;;;;;14.00;2.53;;;11.00;99.90;;;;;;5054617;28;20036;-61
2022/05/12 00:55:39;;;;;;;9.88;2.47;;;11.00;99.90;;;;;;5054696;28;20120;-65
2022/05/12 00:58:07;;;;;;;10.10;2.58;;;11.00;99.90;;;;;;5054641;28;20318;-63
2022/05/12 01:00:33;;;;;;;13.80;2.90;;;11.00;99.90;;;;;;5054850;28;20028;-65
2022/05/12 01:03:04;;;;;;;12.20;3.17;;;11.00;99.90;;;;;;5054791;28;20075;-64
2022/05/12 01:05:30;;;;;;;14.18;2.90;;;11.00;99.90;;;;;;5054795;28;20027;-67
2022/05/12 01:07:57;;;;;;;16.42;2.78;;;11.00;99.90;;;;;;5054855;28;20017;-63
2022/05/12 01:10:23;;;;;;;19.83;3.33;;;11.00;99.90;;;;;;5054399;28;20036;-64
2022/05/12 01:12:52;;;;;;;22.10;3.53;;;11.00;99.90;;;;;;5054203;28;20013;-66
2022/05/12 01:15:21;;;;;;;12.27;2.88;;;11.00;99.90;;;;;;5054410;28;20033;-67
2022/05/12 01:17:47;;;;;;;16.90;2.97;;;11.00;99.90;;;;;;5054446;28;20025;-64
2022/05/12 01:20:13;;;;;;;18.00;4.13;;;11.00;99.90;;;;;;5054712;28;20021;-67
2022/05/12 01:22:53;;;;;;;16.85;3.40;;;11.00;99.90;;;;;;5054346;28;20048;-63
2022/05/12 01:25:23;;;;;;;17.40;4.18;;;11.00;99.90;;;;;;5054101;28;20057;-65
2022/05/12 01:27:48;;;;;;;21.38;4.10;;;11.10;99.90;;;;;;5054067;28;20031;-63
2022/05/12 01:30:17;;;;;;;21.77;5.35;;;11.10;99.90;;;;;;5054406;28;20045;-62
2022/05/12 01:32:47;;;;;;;12.02;3.95;;;11.10;99.90;;;;;;5053799;28;20526;-64
2022/05/12 01:35:15;;;;;;;18.27;4.75;;;11.10;99.90;;;;;;5053953;28;20033;-64
2022/05/12 01:37:42;;;;;;;14.75;4.47;;;11.10;99.90;;;;;;5053870;28;20033;-63
2022/05/12 01:40:10;;;;;;;14.40;4.07;;;11.10;99.90;;;;;;5053902;28;20033;-64
2022/05/12 01:42:35;;;;;;;15.40;4.88;;;11.20;99.90;;;;;;5052720;28;20031;-62
2022/05/12 01:45:03;;;;;;;17.55;4.20;;;11.20;99.90;;;;;;5054373;28;20029;-63
2022/05/12 01:47:29;;;;;;;17.67;4.60;;;11.20;99.90;;;;;;5053876;28;20021;-66
2022/05/12 01:49:55;;;;;;;18.95;4.70;;;11.20;99.90;;;;;;5052619;28;20020;-64
2022/05/12 01:52:20;;;;;;;14.90;4.40;;;11.30;99.90;;;;;;5053488;28;20052;-65
2022/05/12 01:54:46;;;;;;;14.95;4.93;;;11.20;99.90;;;;;;5053702;28;20049;-64
2022/05/12 01:57:12;;;;;;;16.48;4.43;;;11.20;99.90;;;;;;5053417;28;20049;-63
2022/05/12 01:59:37;;;;;;;14.10;4.38;;;11.30;99.90;;;;;;5053571;28;20103;-66
2022/05/12 02:02:03;;;;;;;17.08;4.55;;;11.30;99.90;;;;;;5053914;28;20024;-65
2022/05/12 02:04:29;;;;;;;16.67;4.85;;;11.30;99.90;;;;;;5053316;28;20116;-65
2022/05/12 02:06:55;;;;;;;16.90;4.97;;;11.30;99.90;;;;;;5053103;28;20021;-63
2022/05/12 02:09:20;;;;;;;15.50;4.35;;;11.30;99.90;;;;;;5053368;28;20036;-67
2022/05/12 02:11:46;;;;;;;16.88;4.28;;;11.40;99.90;;;;;;5053304;28;20103;-64
2022/05/12 02:14:12;;;;;;;14.82;4.18;;;11.40;99.90;;;;;;5053350;28;20043;-65
2022/05/12 02:16:38;;;;;;;9.80;4.20;;;11.40;99.90;;;;;;5053356;28;20029;-65
2022/05/12 02:19:05;;;;;;;14.65;4.05;;;11.40;99.90;;;;;;5052598;28;20071;-62
2022/05/12 02:21:34;;;;;;;19.15;4.60;;;11.40;99.90;;;;;;5052784;28;20048;-64
2022/05/12 02:24:00;;;;;;;9.95;3.75;;;11.40;99.90;;;;;;5052865;28;20067;-64
2022/05/12 02:26:27;;;;;;;16.48;3.95;;;11.40;99.90;;;;;;5052896;28;20404;-60
2022/05/12 02:28:52;;;;;;;9.07;3.10;;;11.40;99.90;;;;;;5052258;28;20057;-67
2022/05/12 02:31:18;;;;;;;10.80;3.58;;;11.40;99.90;;;;;;5053238;28;20342;-65
2022/05/12 02:33:44;;;;;;;10.07;3.60;;;11.40;99.90;;;;;;5052732;28;20033;-64
2022/05/12 02:36:09;;;;;;;11.18;3.30;;;11.40;99.90;;;;;;5052746;28;20027;-64
2022/05/12 02:38:35;;;;;;;14.00;3.40;;;11.40;99.90;;;;;;5052665;28;20373;-65
2022/05/12 02:41:01;;;;;;;13.93;3.45;;;11.40;99.90;;;;;;5052507;28;20029;-62
2022/05/12 02:43:29;;;;;;;19.88;3.35;;;11.40;99.90;;;;;;5053004;28;20029;-66
2022/05/12 02:45:58;;;;;;;16.35;4.50;;;11.40;99.90;;;;;;5052823;28;20017;-64
2022/05/12 02:48:27;;;;;;;14.15;4.00;;;11.40;99.90;;;;;;5052944;28;20017;-66
2022/05/12 02:50:53;;;;;;;13.13;3.45;;;11.40;99.90;;;;;;5052366;28;20377;-64
2022/05/12 02:53:19;;;;;;;17.48;4.10;;;11.30;99.90;;;;;;5052743;28;20028;-63
2022/05/12 02:55:45;;;;;;;17.58;4.32;;;11.30;99.90;;;;;;5052523;28;20034;-63
2022/05/12 02:58:11;;;;;;;12.82;4.60;;;11.30;99.90;;;;;;5052756;28;20017;-64
2022/05/12 03:00:38;;;;;;;17.42;4.30;;;11.20;99.90;;;;;;5052419;28;20427;-65
2022/05/12 03:03:05;;;;;;;18.90;5.22;;;11.20;99.90;;;;;;5052809;28;20037;-65
2022/05/12 03:05:31;;;;;;;18.80;4.85;;;11.20;99.90;;;;;;5052355;28;20400;-63
2022/05/12 03:07:57;;;;;;;17.80;4.43;;;11.20;99.90;;;;;;5052350;28;20021;-66
2022/05/12 03:10:24;;;;;;;16.52;4.60;;;11.20;99.90;;;;;;5051268;28;20055;-63
2022/05/12 03:12:50;;;;;;;15.30;3.75;;;11.20;99.90;;;;;;5052276;28;20075;-63
2022/05/12 03:15:17;;;;;;;15.00;3.88;;;11.20;99.90;;;;;;5052134;28;20064;-66
2022/05/12 03:17:43;;;;;;;17.67;4.68;;;11.20;99.90;;;;;;5052207;28;20024;-62
2022/05/12 03:20:12;;;;;;;16.80;5.75;;;11.20;99.90;;;;;;5052195;28;20079;-64
2022/05/12 03:22:39;;;;;;;16.48;4.60;;;11.10;99.90;;;;;;5052659;28;20017;-63
2022/05/12 03:25:05;;;;;;;15.73;4.13;;;11.10;99.90;;;;;;5052473;28;20079;-64
2022/05/12 03:27:31;;;;;;;20.38;4.30;;;11.10;99.90;;;;;;5052026;28;20073;-64
2022/05/12 03:29:57;;;;;;;15.02;4.78;;;11.10;99.90;;;;;;5052367;28;20060;-65
2022/05/12 03:32:23;;;;;;;17.67;4.43;;;11.10;99.90;;;;;;5052038;28;20025;-66
2022/05/12 03:34:49;;;;;;;15.80;5.55;;;11.00;99.90;;;;;;5052239;28;20037;-64
2022/05/12 03:37:16;;;;;;;17.88;4.60;;;11.10;99.90;;;;;;5052092;28;20356;-64
2022/05/12 03:39:42;;;;;;;18.30;5.03;;;11.00;99.90;;;;;;5052168;28;20036;-64
2022/05/12 03:42:10;;;;;;;15.13;4.38;;;11.00;99.90;;;;;;5054614;28;20102;-64
2022/05/12 03:44:58;;;;;;;22.27;5.75;;;11.00;99.90;;;;;;5054908;28;20044;-62
2022/05/12 03:47:33;;;;;;;21.55;4.53;;;11.00;99.90;;;;;;5056351;28;20020;-62
2022/05/12 03:50:03;;;;;;;13.73;4.18;;;11.00;99.90;;;;;;5056275;28;20135;-63
2022/05/12 03:52:30;;;;;;;22.25;4.93;;;11.00;99.90;;;;;;5054611;28;20111;-65
2022/05/12 03:54:57;;;;;;;22.73;5.50;;;11.00;99.90;;;;;;5055983;28;20120;-64
2022/05/12 03:57:24;;;;;;;12.70;4.20;;;11.00;99.90;;;;;;5055798;28;20152;-65
2022/05/12 03:59:50;;;;;;;16.75;5.55;;;10.90;99.90;;;;;;5055597;28;20036;-64
2022/05/12 04:02:17;;;;;;;19.42;4.38;;;10.90;99.90;;;;;;5055927;28;20035;-64
2022/05/12 04:04:43;;;;;;;16.45;5.07;;;10.90;99.90;;;;;;5055614;28;20020;-63
2022/05/12 04:07:12;;;;;;;17.48;4.30;;;10.90;99.90;;;;;;5056006;28;20029;-61
2022/05/12 04:09:38;;;;;;;18.05;4.65;;;10.90;99.90;;;;;;5055650;28;20145;-65
2022/05/12 04:12:05;;;;;;;16.08;4.80;;;10.90;99.90;;;;;;5055632;28;20519;-62
2022/05/12 04:14:31;;;;;;;17.90;4.38;;;11.00;99.90;;;;;;5055792;28;20059;-65
2022/05/12 04:16:59;;;;;;;17.33;5.10;;;11.00;99.90;;;;;;5055511;28;20373;-63
2022/05/12 04:19:24;;;;;;;19.52;5.28;;;11.00;99.90;;;;;;5055806;28;20100;-61
2022/05/12 04:21:52;;;;;;;22.30;5.00;;;11.00;99.90;;;;;;5055521;28;20112;-65
2022/05/12 04:24:19;;;;;;;19.92;4.50;;;11.00;99.90;;;;;;5055443;28;20021;-64
2022/05/12 04:26:46;;;;;;;21.38;5.25;;;11.00;99.90;;;;;;5055137;28;20021;-63
2022/05/12 04:29:12;;;;;;;16.55;4.95;;;11.00;99.90;;;;;;5055076;28;20039;-63
2022/05/12 04:31:39;;;;;;;19.75;4.95;;;11.00;99.90;;;;;;5055221;28;20056;-63
2022/05/12 04:36:49;;;;;;;13.70;4.25;;;11.10;99.90;;;;;;5054887;28;20063;-64
2022/05/12 04:39:15;;;;;;;13.70;4.72;;;11.10;99.90;;;;;;5054951;28;20499;-65
2022/05/12 04:41:41;;;;;;;16.08;5.00;;;11.10;99.90;;;;;;5055288;28;20024;-65
2022/05/12 04:44:07;;;;;;;17.08;4.13;;;11.10;99.90;;;;;;5055346;28;20021;-63
2022/05/12 04:46:34;;;;;;;18.13;4.03;;;11.20;99.90;;;;;;5054810;28;20350;-64
2022/05/12 04:49:01;;;;;;;12.60;3.50;;;11.20;99.90;;;;;;5054881;28;20059;-63
2022/05/12 04:51:27;;;;;;;12.27;3.45;;;11.20;99.90;;;;;;5054178;28;20121;-64
2022/05/12 04:53:53;;;;;;;12.05;3.30;;;11.20;99.90;;;;;;5054104;28;20416;-63
2022/05/12 04:56:19;;;;;;;21.00;4.57;;;11.30;99.90;;;;;;5054773;28;20029;-64
2022/05/12 04:58:44;;;;;;;15.40;3.35;;;11.40;99.90;;;;;;5054554;28;20369;-66
2022/05/12 05:01:10;;;;;;;15.02;3.45;;;11.40;99.90;;;;;;5054218;28;20099;-63
2022/05/12 05:03:36;;;;;;;14.40;3.65;;;11.50;99.90;;;;;;5054624;28;20386;-66
2022/05/12 05:06:02;;;;;;;15.13;3.95;;;11.50;99.90;;;;;;5054341;28;20162;-63
2022/05/12 05:08:28;;;;;;;12.27;3.88;;;11.50;99.90;;;;;;5054688;28;20021;-65
2022/05/12 05:10:54;;;;;;;17.63;3.70;;;11.60;99.90;;;;;;5054623;28;20029;-62
2022/05/12 05:13:22;;;;;;;15.82;4.00;;;11.70;99.90;;;;;;5054447;28;20122;-65
2022/05/12 05:15:49;;;;;;;14.02;3.55;;;11.70;99.90;;;;;;5054400;28;20465;-64
2022/05/12 05:18:16;;;;;;;14.23;3.78;;;11.80;99.90;;;;;;5054316;28;20021;-64
2022/05/12 05:20:42;;;;;;;20.00;4.32;;;11.90;99.90;;;;;;5054121;28;20408;-65
2022/05/12 05:23:08;;;;;;;14.48;3.80;;;11.90;99.90;;;;;;5054245;28;20029;-60
2022/05/12 05:25:34;;;;;;;9.32;2.42;;;12.00;99.90;;;;;;5054187;28;20124;-64
2022/05/12 05:28:00;;;;;;;8.13;2.78;;;12.10;99.90;;;;;;5053005;28;20155;-66
2022/05/12 05:30:27;;;;;;;7.82;2.50;;;12.10;99.90;;;;;;5054170;28;20048;-63
2022/05/12 05:32:53;;;;;;;13.40;3.40;;;12.20;99.90;;;;;;5054088;28;20506;-65
2022/05/12 05:35:20;;;;;;;19.73;3.42;;;12.30;99.90;;;;;;5053671;28;20457;-65
2022/05/12 05:37:47;;;;;;;13.63;4.13;;;12.30;99.90;;;;;;5054323;28;20021;-63
2022/05/12 05:40:15;;;;;;;13.02;2.90;;;12.40;99.90;;;;;;5054255;28;20032;-61
2022/05/12 05:42:43;;;;;;;11.13;2.90;;;12.50;99.90;;;;;;5054100;28;20025;-63
2022/05/12 05:45:12;;;;;;;13.55;2.80;;;12.70;99.90;;;;;;5054411;28;20055;-64
2022/05/12 05:47:39;;;;;;;9.43;3.20;;;12.80;99.90;;;;;;5053693;28;20025;-63
2022/05/12 05:50:09;;;;;;;7.82;2.88;;;12.90;99.90;;;;;;5052278;28;20040;-66
2022/05/12 05:55:19;;;;;;;10.65;3.25;;;13.30;99.90;;;;;;5053875;28;20048;-64
2022/05/12 05:57:45;;;;;;;7.30;2.25;;;13.50;99.90;;;;;;5053879;28;20025;-65
2022/05/12 06:00:12;;;;;;;8.63;2.65;;;13.80;99.90;;;;;;5053180;28;20028;-65
2022/05/12 06:02:38;;;;;;;10.68;2.40;;;14.30;99.90;;;;;;5053561;28;20032;-66
2022/05/12 06:05:05;;;;;;;11.55;2.88;;;14.90;99.90;;;;;;5052852;28;20493;-61
2022/05/12 06:07:32;;;;;;;7.68;2.45;;;15.60;99.90;;;;;;5053036;28;20021;-65
2022/05/12 06:09:58;;;;;;;10.48;2.72;;;16.20;99.90;;;;;;5052182;28;20029;-63
2022/05/12 06:12:23;;;;;;;5.45;2.20;;;16.90;99.90;;;;;;5053301;28;20095;-62
2022/05/12 06:14:50;;;;;;;9.20;2.20;;;17.70;99.90;;;;;;5053032;28;20472;-62
2022/05/12 06:17:16;;;;;;;11.93;2.20;;;18.30;99.90;;;;;;5053261;28;20027;-62
2022/05/12 06:19:42;;;;;;;11.35;1.60;;;19.00;99.90;;;;;;5053477;28;20107;-62
2022/05/12 06:22:08;;;;;;;7.53;1.80;;;19.70;99.90;;;;;;5053323;28;20536;-62
2022/05/12 06:24:34;;;;;;;11.68;1.92;;;20.30;99.90;;;;;;5053070;28;20025;-61
2022/05/12 06:27:00;;;;;;;8.50;2.20;;;20.60;99.90;;;;;;5051996;28;20377;-62
2022/05/12 06:29:25;;;;;;;8.63;2.10;;;21.20;99.90;;;;;;5051400;28;20037;-64
2022/05/12 06:31:51;;;;;;;5.43;1.70;;;21.70;99.40;;;;;;5053468;28;20107;-64
2022/05/12 06:34:17;;;;;;;12.50;3.30;;;22.40;98.20;;;;;;5053085;28;20102;-62
2022/05/12 06:36:43;;;;;;;13.13;5.32;;;22.90;97.20;;;;;;5052715;28;20384;-62
2022/05/12 06:39:10;;;;;;;10.68;3.30;;;23.40;96.50;;;;;;5051710;28;20043;-62
2022/05/12 06:41:35;;;;;;;9.20;3.30;;;23.70;95.20;;;;;;5052773;28;20465;-62
2022/05/12 06:44:02;;;;;;;13.60;3.35;;;23.90;94.30;;;;;;5051313;28;20035;-62
2022/05/12 06:46:28;;;;;;;11.30;2.65;;;24.10;93.90;;;;;;5053465;28;20052;-62
2022/05/12 06:48:54;;;;;;;10.68;2.83;;;24.30;93.20;;;;;;5051335;28;20052;-62
2022/05/12 06:51:20;;;;;;;7.60;2.47;;;24.40;92.90;;;;;;5052689;28;20124;-62
2022/05/12 06:53:46;;;;;;;8.02;2.88;;;24.70;92.20;;;;;;5052742;28;20480;-62
2022/05/12 06:56:12;;;;;;;13.57;3.15;;;24.90;91.20;;;;;;5052291;28;20063;-62
2022/05/12 06:58:38;;;;;;;6.72;2.08;;;24.80;91.00;;;;;;5050677;28;20060;-62
2022/05/12 07:01:05;;;;;;;6.72;2.15;;;24.90;91.00;;;;;;5052472;28;20032;-62
2022/05/12 07:03:31;;;;;;;8.52;2.38;;;25.00;90.60;;;;;;5052644;28;20023;-63
2022/05/12 07:05:58;;;;;;;8.13;2.20;;;25.10;90.20;;;;;;5052067;28;20036;-62
2022/05/12 07:08:26;;;;;;;4.68;1.88;;;25.10;88.60;;;;;;5052396;28;20079;-62
2022/05/12 07:10:52;;;;;;;13.43;2.42;;;24.90;89.00;;;;;;5052497;28;20044;-62
2022/05/12 07:13:21;;;;;;;6.75;1.90;;;24.90;87.90;;;;;;5052320;28;20025;-62
2022/05/12 07:15:49;;;;;;;7.45;1.90;;;24.80;88.60;;;;;;5052216;28;20021;-62
2022/05/12 07:18:16;;;;;;;8.73;1.80;;;24.70;87.80;;;;;;5052643;28;20391;-62
2022/05/12 07:28:54;;;;;;;8.07;1.92;;;22.90;90.00;;;;;;5052113;28;20048;-62
2022/05/12 07:31:20;;;;;;;7.93;2.47;;;22.30;90.80;;;;;;5052192;28;20025;-62
2022/05/12 07:33:46;;;;;;;7.57;2.60;;;21.70;91.20;;;;;;5052343;28;20113;-62
2022/05/12 07:36:21;;;;;;;7.68;2.22;;;21.30;91.80;;;;;;5051721;28;20032;-62
2022/05/12 07:38:47;;;;;;;6.35;2.30;;;20.80;92.90;;;;;;5052068;28;20067;-62
2022/05/12 07:41:13;;;;;;;8.48;2.35;;;20.40;93.50;;;;;;5052362;28;20446;-62
2022/05/12 07:43:40;;;;;;;8.07;1.60;;;19.90;94.00;;;;;;5052243;28;20025;-62
2022/05/12 07:46:07;;;;;;;10.35;1.92;;;19.60;94.70;;;;;;5050901;28;20021;-62
2022/05/12 07:48:33;;;;;;;6.45;1.60;;;19.30;95.20;;;;;;5050411;28;20028;-62
2022/05/12 07:50:59;;;;;;;6.78;2.00;;;19.30;95.50;;;;;;5051862;28;20048;-63
2022/05/12 07:53:25;;;;;;;6.28;1.52;;;19.30;95.50;;;;;;5051680;28;20061;-62
2022/05/12 07:55:51;;;;;;;8.65;2.10;;;19.50;95.00;;;;;;5051980;28;20021;-62
2022/05/12 07:58:17;;;;;;;6.50;1.52;;;19.80;94.40;;;;;;5051700;28;20544;-62
2022/05/12 08:00:43;;;;;;;7.10;1.40;;;20.10;93.40;;;;;;5051866;28;20067;-62
2022/05/12 08:03:09;;;;;;;10.00;1.23;;;20.50;93.10;;;;;;5052163;28;20036;-63
2022/05/12 08:05:35;;;;;;;9.05;1.60;;;21.00;92.60;;;;;;5051289;28;20087;-63
2022/05/12 08:08:05;;;;;;;6.30;1.05;;;21.70;92.10;;;;;;5051854;28;20027;-62
2022/05/12 08:10:31;;;;;;;5.85;1.42;;;22.50;90.60;;;;;;5049560;28;20453;-62
2022/05/12 08:12:57;;;;;;;7.32;1.55;;;23.20;89.70;;;;;;5051780;28;20016;-62
2022/05/12 08:15:25;;;;;;;4.63;1.30;;;23.90;87.30;;;;;;5051874;28;20121;-63
2022/05/12 08:17:52;;;;;;;4.82;1.30;;;24.50;85.10;;;;;;5051704;28;20021;-63
2022/05/12 08:20:17;;;;;;;4.80;1.10;;;25.30;82.90;;;;;;5051667;28;20036;-62
2022/05/12 08:22:43;;;;;;;5.90;1.05;;;26.00;81.00;;;;;;5051408;28;20454;-63
2022/05/12 08:25:09;;;;;;;3.03;1.13;;;26.70;79.10;;;;;;5051359;28;20063;-62
2022/05/12 08:27:35;;;;;;;6.75;1.65;;;27.70;77.50;;;;;;5053086;28;20449;-63
2022/05/12 08:30:00;;;;;;;5.50;1.83;;;28.50;75.80;;;;;;5053848;28;20053;-63
2022/05/12 08:32:26;;;;;;;7.28;1.40;;;28.70;70.20;;;;;;5055113;28;20032;-62
2022/05/12 08:34:52;;;;;;;4.22;1.10;;;28.30;71.50;;;;;;5053091;28;20146;-62
2022/05/12 08:37:18;;;;;;;3.88;1.02;;;28.40;71.00;;;;;;5055103;28;20025;-62
2022/05/12 08:39:45;;;;;;;4.65;0.98;;;28.00;70.00;;;;;;5055212;28;20036;-62
2022/05/12 08:42:31;;;;;;;5.82;1.50;;;28.20;69.70;;;;;;5055241;28;20024;-63
2022/05/12 08:45:01;;;;;;;5.00;1.10;;;28.70;69.10;;;;;;5055076;28;20028;-63
2022/05/12 08:47:31;;;;;;;4.43;1.08;;;28.20;67.30;;;;;;5055049;28;20027;-63
2022/05/12 08:49:57;;;;;;;3.72;1.02;;;27.80;68.80;;;;;;5054309;28;20025;-63
2022/05/12 08:52:32;;;;;;;5.38;1.30;;;28.20;67.50;;;;;;5055124;28;20017;-63
2022/05/12 08:55:08;;;;;;;8.73;1.88;;;28.70;67.10;;;;;;5054842;28;20109;-62
2022/05/12 08:58:05;;;;;;;4.47;1.30;;;29.10;67.10;;;;;;5054557;28;20033;-63
2022/05/12 09:00:51;;;;;;;8.50;1.20;;;29.50;66.80;;;;;;5054963;28;20066;-62
2022/05/12 09:03:29;;;;;;;3.20;1.10;;;29.90;65.40;;;;;;5054826;28;20074;-62
2022/05/12 09:06:11;;;;;;;3.50;1.50;;;29.80;63.40;;;;;;5054461;28;20028;-63
2022/05/12 09:08:40;;;;;;;5.60;1.27;;;29.30;64.90;;;;;;5054850;28;20025;-63
2022/05/12 09:11:17;;;;;;;6.55;1.25;;;29.40;64.20;;;;;;5055135;28;20029;-63
2022/05/12 09:13:49;;;;;;;5.25;1.40;;;29.80;63.00;;;;;;5054351;28;20048;-62
2022/05/12 09:16:22;;;;;;;3.60;1.20;;;30.00;62.20;;;;;;5054673;28;20024;-62
2022/05/12 09:18:48;;;;;;;6.20;1.58;;;30.00;61.40;;;;;;5054772;28;20027;-63
2022/05/12 09:21:18;;;;;;;5.45;0.98;;;29.90;61.60;;;;;;5054757;28;20021;-62
2022/05/12 09:23:43;;;;;;;5.60;1.63;;;29.70;62.30;;;;;;5054411;28;20047;-63
2022/05/12 09:26:34;;;;;;;6.43;1.40;;;30.00;61.90;;;;;;5054385;28;20238;-63
2022/05/12 09:29:15;;;;;;;5.45;1.20;;;30.50;59.60;;;;;;5054274;28;20040;-63
2022/05/12 09:31:44;;;;;;;5.85;1.23;;;30.30;59.40;;;;;;5054469;28;20040;-63
2022/05/12 09:34:32;;;;;;;3.92;1.00;;;29.80;59.40;;;;;;5053560;28;20032;-62
2022/05/12 09:37:16;;;;;;;5.38;1.20;;;29.10;60.40;;;;;;5053987;28;20025;-63
2022/05/12 09:39:48;;;;;;;3.13;0.80;;;29.20;60.70;;;;;;5054075;28;20428;-62
2022/05/12 09:42:42;;;;;;;3.03;1.27;;;29.40;59.40;;;;;;5054303;28;20025;-63
2022/05/12 09:45:22;;;;;;;3.13;1.00;;;29.40;59.50;;;;;;5053355;28;20127;-63
2022/05/12 09:47:48;;;;;;;4.43;1.10;;;29.60;58.20;;;;;;5053889;28;20116;-63
2022/05/12 09:50:24;;;;;;;6.45;1.33;;;29.30;58.00;;;;;;5053737;28;20104;-62
2022/05/12 09:53:00;;;;;;;4.15;0.93;;;28.80;58.50;;;;;;5053904;28;20032;-63
2022/05/12 09:55:38;;;;;;;5.15;1.50;;;28.50;58.30;;;;;;5053699;28;20029;-62
2022/05/12 09:58:16;;;;;;;3.30;0.70;;;28.50;59.10;;;;;;5053892;28;20071;-62
2022/05/12 10:01:02;;;;;;;4.82;1.50;;;28.60;58.40;;;;;;5053797;28;20160;-62
2022/05/12 10:09:05;;;;;;;3.65;0.80;;;29.20;58.60;;;;;;5053190;28;20044;-68
2022/05/12 10:12:09;;;;;;;6.00;1.52;;;29.00;57.00;;;;;;5050488;28;20032;-68
2022/05/12 10:15:00;;;;;;;7.50;2.28;;;29.10;57.80;;;;;;5050820;28;20033;-67
2022/05/12 10:17:26;;;;;;;5.25;1.70;;;29.20;57.80;;;;;;5053231;28;20022;-63
2022/05/12 10:19:52;;;;;;;4.20;1.10;;;29.20;57.50;;;;;;5054638;28;20019;-65
2022/05/12 10:22:32;;;;;;;4.55;1.08;;;29.50;57.50;;;;;;5052594;28;20043;-63
2022/05/12 10:25:33;;;;;;;9.35;1.58;;;29.80;57.50;;;;;;5062904;28;20107;-63
2022/05/12 10:28:44;;;;;;;3.05;1.13;;;30.30;57.10;;;;;;5050871;28;20156;-64
2022/05/12 10:31:22;;;;;;;5.05;1.27;;;30.30;56.20;;;;;;5039104;28;20433;-65
2022/05/12 10:34:10;;;;;;;6.57;1.25;;;30.10;56.20;;;;;;5057661;28;20026;-63
2022/05/12 10:37:03;;;;;;;7.88;1.42;;;29.60;55.60;;;;;;5071837;28;20377;-67
2022/05/12 10:39:47;;;;;;;7.10;1.40;;;29.40;56.70;;;;;;5055415;28;20060;-64
2022/05/12 10:42:27;;;;;;;5.22;1.20;;;29.50;56.10;;;;;;5053198;28;20461;-64
2022/05/12 10:45:11;;;;;;;3.70;1.20;;;29.30;55.60;;;;;;5052906;28;20509;-64
2022/05/12 10:47:43;;;;;;;4.38;1.65;;;29.40;54.70;;;;;;5051938;28;20033;-66
2022/05/12 10:50:18;;;;;;;5.90;2.30;;;28.80;55.80;;;;;;5050347;28;20555;-66
2022/05/12 10:53:05;;;;;;;8.35;2.35;;;29.00;54.90;;;;;;5050797;28;20021;-64
2022/05/12 10:55:31;;;;;;;5.13;2.00;;;28.60;54.80;;;;;;5052736;28;20492;-66
2022/05/12 10:58:22;;;;;;;12.02;3.33;;;28.50;55.30;;;;;;5053095;28;20057;-63
2022/05/12 11:00:56;;;;;;;3.30;0.80;;;28.70;54.90;;;;;;5052932;28;20016;-65
2022/05/12 11:03:27;;;;;;;5.65;1.13;;;28.70;54.40;;;;;;5052556;28;20017;-65
2022/05/12 11:06:05;;;;;;;4.75;1.00;;;28.70;55.30;;;;;;5049733;28;20055;-63
2022/05/12 11:08:55;;;;;;;4.40;1.40;;;28.70;55.00;;;;;;5050595;28;20391;-66
2022/05/12 11:11:28;;;;;;;4.75;1.77;;;28.60;54.90;;;;;;5050036;28;20024;-65
2022/05/12 11:14:06;;;;;;;3.60;1.05;;;28.60;55.80;;;;;;5051674;28;20532;-64
2022/05/12 11:16:41;;;;;;;5.15;1.40;;;29.10;54.00;;;;;;5052205;28;20035;-62
2022/05/12 11:19:15;;;;;;;5.75;1.25;;;28.70;54.70;;;;;;5050421;28;20017;-66
2022/05/12 11:21:55;;;;;;;6.47;1.33;;;28.30;55.00;;;;;;5052272;28;20033;-63
2022/05/12 11:24:29;;;;;;;5.18;1.05;;;28.10;54.80;;;;;;5053789;28;20531;-65
2022/05/12 11:27:01;;;;;;;5.10;1.10;;;28.30;54.60;;;;;;5052292;28;20458;-64
2022/05/12 11:29:44;;;;;;;8.07;1.80;;;28.10;54.50;;;;;;5052389;28;20052;-65
2022/05/12 11:32:42;;;;;;;3.15;1.00;;;28.30;54.60;;;;;;5052088;28;20108;-63
2022/05/12 11:35:17;;;;;;;5.32;1.00;;;28.60;54.90;;;;;;5052151;28;20167;-65
2022/05/12 11:37:43;;;;;;;7.80;1.20;;;29.30;53.60;;;;;;5052189;28;20043;-66
2022/05/12 11:40:14;;;;;;;5.50;1.25;;;29.40;53.80;;;;;;5051872;28;20468;-62
2022/05/12 11:46:31;;;;;;;2.53;1.00;;;29.70;52.80;;;;;;5052260;28;20090;-63
2022/05/12 11:49:00;;;;;;;7.53;1.73;;;29.20;53.30;;;;;;5052433;28;20094;-63
2022/05/12 11:51:52;;;;;;;3.90;1.00;;;29.30;54.00;;;;;;5052408;28;20025;-64
2022/05/12 11:54:49;;;;;;;6.38;1.30;;;29.50;52.90;;;;;;5052124;28;20453;-65
2022/05/12 11:57:25;;;;;;;4.55;1.20;;;29.10;53.00;;;;;;5052148;28;21121;-63
2022/05/12 11:59:54;;;;;;;5.88;1.25;;;29.40;52.10;;;;;;5052396;28;20037;-63
2022/05/12 12:02:28;;;;;;;5.50;1.10;;;29.30;52.50;;;;;;5053070;28;20031;-65
2022/05/12 12:04:56;;;;;;;12.52;2.22;;;29.40;52.80;;;;;;5055707;28;20484;-63
2022/05/12 12:07:30;;;;;;;2.53;0.88;;;29.20;52.10;;;;;;5054925;28;20017;-62
2022/05/12 12:10:06;;;;;;;4.75;1.13;;;28.90;52.20;;;;;;5055843;28;20033;-62
2022/05/12 12:12:40;;;;;;;6.43;1.40;;;28.30;52.20;;;;;;5053756;28;20032;-64
2022/05/12 12:15:08;;;;;;;3.78;0.75;;;28.60;52.70;;;;;;5053065;28;20094;-62
2022/05/12 12:17:37;;;;;;;4.35;1.13;;;29.10;51.80;;;;;;5055277;28;20025;-62
2022/05/12 12:20:32;;;;;;;3.08;1.02;;;29.30;52.00;;;;;;5055020;28;20032;-65
2022/05/12 12:23:25;;;;;;;4.43;1.48;;;28.90;52.00;;;;;;5054554;28;20096;-67
2022/05/12 12:26:26;;;;;;;3.65;1.00;;;28.60;51.40;;;;;;5054657;28;20032;-64
2022/05/12 12:29:10;;;;;;;6.28;0.98;;;28.20;51.50;;;;;;5054843;28;20385;-62
2022/05/12 12:31:50;;;;;;;3.42;1.08;;;27.90;52.00;;;;;;5055646;28;20068;-64
2022/05/12 12:34:41;;;;;;;3.03;0.93;;;27.80;52.20;;;;;;5055522;28;20068;-63
2022/05/12 12:37:09;;;;;;;2.72;0.98;;;27.40;52.10;;;;;;5055745;28;20032;-63
2022/05/12 12:39:37;;;;;;;4.22;1.45;;;27.10;52.80;;;;;;5055527;28;20461;-64
2022/05/12 12:42:10;;;;;;;2.88;0.93;;;27.10;52.90;;;;;;5055638;28;20111;-63
2022/05/12 12:44:43;;;;;;;4.15;0.90;;;26.70;53.10;;;;;;5055316;28;20069;-64
2022/05/12 12:47:39;;;;;;;7.18;1.52;;;26.20;53.70;;;;;;5055090;28;20166;-62
2022/05/12 12:50:16;;;;;;;3.97;1.08;;;25.80;54.50;;;;;;5055326;28;20029;-64
2022/05/12 12:52:45;;;;;;;5.97;1.42;;;25.10;55.20;;;;;;5055154;28;20070;-63
2022/05/12 12:58:11;;;;;;;4.57;1.10;;;24.60;57.00;;;;;;5055225;28;20424;-61
2022/05/12 13:00:37;;;;;;;8.50;2.05;;;24.50;56.80;;;;;;5054124;28;20037;-65
2022/05/12 13:03:07;;;;;;;4.82;2.22;;;24.20;57.00;;;;;;5055070;28;20024;-65
2022/05/12 13:05:34;;;;;;;5.70;1.77;;;23.90;57.00;;;;;;5055225;28;20032;-62
2022/05/12 13:08:06;;;;;;;5.15;1.73;;;23.70;57.80;;;;;;5055212;28;20025;-65
2022/05/12 13:10:40;;;;;;;;;;;23.50;57.40;;;;;;5055533;28;20103;-64
2022/05/12 13:13:06;;;;;;;5.25;1.35;;;23.30;58.20;;;;;;5054491;28;19901;-63
2022/05/12 13:15:35;;;;;;;7.18;1.45;;;23.00;58.00;;;;;;5054763;28;20418;-64
2022/05/12 13:18:04;;;;;;;6.75;1.30;;;22.70;58.50;;;;;;5054978;28;20120;-61
2022/05/12 13:20:38;;;;;;;5.72;1.10;;;22.60;58.90;;;;;;5054928;28;20036;-66
2022/05/12 13:23:05;;;;;;;6.30;1.35;;;22.60;59.20;;;;;;5054881;28;20048;-66
2022/05/12 13:25:33;;;;;;;3.13;1.00;;;22.50;59.90;;;;;;5054698;28;20055;-64